Sidell, IL (61876)

11:14 AM CDT on October 30, 2014 (GMT -0500)
Vermilion County Emergency Management Agency | Change Station
CLOSE
Current Station
Personal Weather Station
Location: Danville, IL
Elevation: 655 ft
Nearby Weather Stations
Active Advisory: Special Statement

Elev 655 ft 40.08 °N, 87.63 °W | Updated 9 seconds ago

Partly Cloudy
Partly Cloudy
48.7 °F
Feels Like 46 °F
N
5.8
Wind Variable Wind from SSW
Gusts 5.8 mph

Today
High -- | Low -- °F
--% Chance of Precip.
Yesterday
High -- | Low -- °F
Precip. -- in
7:17 AM 5:51 PM
Waxing Crescent, 45% visible
Pressure 30.17 in
Visibility 10.0 miles
Clouds Clear
Windchill 46 °F
Dew Point 49 °F
Humidity 100%
Rainfall 0.00 in
Snow Depth Not available.
UV 3 out of 12
Pollen .10 out of 12
Air Quality Not available.
Flu Activity Not available.
METAR KPRG 301555Z AUTO 15005KT 10SM CLR 10/02 A3017 RMK AO2 T00970019

More Conditions Fewer Conditions

Pressure 30.17 in
Visibility 10.0 miles
Clouds Clear
Windchill 46 °F
Dew Point 49 °F
Humidity 100%
Rainfall 0.00 in
Snow Depth Not available.
UV 3 out of 12
Pollen .10 out of 12
Air Quality Not available.
Flu Activity Not available.
METAR KPRG 301555Z AUTO 15005KT 10SM CLR 10/02 A3017 RMK AO2 T00970019

More Conditions Fewer Conditions

10-Day Weather Forecast

Almanac

Astronomy

Oct. 30, 2014 Rise Set
Actual Time
Civil Twilight
Nautical Twilight
Astronomical Twilight
Moon
Length of Visible Light
Length of Day
Tomorrow will be .
, % of the Moon is Illuminated

Today's Extremes

State Highs State Lows

Community

WunderPhotos

Upload Photos

1,766,398 photos uploaded!

WunderBlogs® & News

Nearby

Air Quality

  Air Quality AQ Index Pollutant
Not available.

Snow Depth

Station Depth Elevation

Earthquake Activity

City Distance Mag. Time & Date
Minimum magnitude displayed is 2.5.

Coastal Water Temperatures

Place Temperature

Nearby Weather Stations